createdAt,value
2019-05-26T00:00:24.804Z,12.80
2019-05-26T00:02:53.957Z,12.80
2019-05-26T00:05:23.073Z,12.80
2019-05-26T00:07:52.214Z,12.80
2019-05-26T00:10:21.329Z,12.80
2019-05-26T00:12:50.458Z,12.70
2019-05-26T00:15:19.556Z,12.70
2019-05-26T00:17:48.735Z,12.70
2019-05-26T00:20:27.822Z,12.70
2019-05-26T00:22:56.930Z,12.70
2019-05-26T00:25:26.024Z,12.70
2019-05-26T00:27:55.187Z,12.60
2019-05-26T00:30:24.297Z,12.70
2019-05-26T00:32:53.459Z,12.60
2019-05-26T00:35:22.531Z,12.60
2019-05-26T00:37:51.691Z,12.60
2019-05-26T00:40:20.959Z,12.60
2019-05-26T00:42:49.987Z,12.60
2019-05-26T00:45:19.282Z,12.50
2019-05-26T00:47:48.387Z,12.50
2019-05-26T00:50:17.783Z,12.50
2019-05-26T00:52:46.952Z,12.40
2019-05-26T00:55:16.418Z,12.40
2019-05-26T00:57:45.499Z,12.30
2019-05-26T01:00:14.805Z,12.30
2019-05-26T01:02:43.894Z,12.30
2019-05-26T01:05:13.305Z,12.30
2019-05-26T01:07:42.407Z,12.30
2019-05-26T01:10:11.557Z,12.30
2019-05-26T01:12:40.717Z,12.30
2019-05-26T01:15:10.006Z,12.30
2019-05-26T01:17:39.106Z,12.30
2019-05-26T01:20:08.997Z,12.30
2019-05-26T01:22:38.178Z,12.30
2019-05-26T01:25:07.593Z,12.30
2019-05-26T01:27:36.665Z,12.30
2019-05-26T01:30:06.808Z,12.30
2019-05-26T01:32:35.940Z,12.30
2019-05-26T01:35:05.626Z,12.30
2019-05-26T01:37:35.001Z,12.30
2019-05-26T01:40:04.951Z,12.30
2019-05-26T01:42:33.980Z,12.30
2019-05-26T01:45:03.060Z,12.40
2019-05-26T01:47:32.171Z,12.30
2019-05-26T01:50:01.253Z,12.30
2019-05-26T01:52:30.383Z,12.30
2019-05-26T01:54:59.580Z,12.30
2019-05-26T01:57:28.679Z,12.30
2019-05-26T01:59:57.862Z,12.30
2019-05-26T02:02:27.160Z,12.20
2019-05-26T02:04:56.322Z,12.20
2019-05-26T02:07:25.437Z,12.20
2019-05-26T02:09:54.533Z,12.20
2019-05-26T02:12:23.706Z,12.20
2019-05-26T02:14:52.817Z,12.20
2019-05-26T02:17:21.905Z,12.20
2019-05-26T02:19:51.042Z,12.20
2019-05-26T02:22:20.121Z,12.10
2019-05-26T02:24:49.298Z,12.10
2019-05-26T02:27:18.407Z,12.10
2019-05-26T02:29:47.502Z,12.10
2019-05-26T02:32:16.615Z,12.10
2019-05-26T02:34:45.694Z,12.20
2019-05-26T02:37:14.791Z,12.20
2019-05-26T02:39:43.907Z,12.20
2019-05-26T02:42:13.003Z,12.20
2019-05-26T02:44:42.118Z,12.20
2019-05-26T02:47:11.197Z,12.20
2019-05-26T02:49:40.308Z,12.20
2019-05-26T02:52:09.390Z,12.20
2019-05-26T02:54:38.469Z,12.10
2019-05-26T02:57:07.598Z,12.10
2019-05-26T02:59:36.681Z,12.10
2019-05-26T03:02:05.800Z,12.10
2019-05-26T03:04:35.011Z,12.10
2019-05-26T03:07:04.536Z,12.10
2019-05-26T03:09:36.813Z,12.10
2019-05-26T03:12:06.061Z,12.20
2019-05-26T03:14:36.569Z,12.20
2019-05-26T03:17:05.718Z,12.20
2019-05-26T03:19:35.649Z,12.10
2019-05-26T03:22:04.753Z,12.10
2019-05-26T03:24:33.973Z,12.10
2019-05-26T03:27:03.108Z,12.00
2019-05-26T03:29:32.225Z,12.00
2019-05-26T03:32:01.391Z,12.00
2019-05-26T03:34:30.614Z,12.00
2019-05-26T03:36:59.752Z,12.10
2019-05-26T03:39:43.509Z,12.10
2019-05-26T03:41:59.707Z,12.10
2019-05-26T03:44:28.826Z,12.10
2019-05-26T03:46:57.926Z,12.10
2019-05-26T03:49:27.058Z,12.10
2019-05-26T03:51:56.233Z,12.10
2019-05-26T03:54:25.394Z,12.20
2019-05-26T03:56:54.499Z,12.20
2019-05-26T03:59:23.591Z,12.20
2019-05-26T04:01:57.307Z,12.20
2019-05-26T04:04:23.629Z,12.20
2019-05-26T04:06:52.824Z,12.30
2019-05-26T04:09:21.975Z,12.30
2019-05-26T04:11:51.098Z,12.20
2019-05-26T04:14:20.220Z,12.30
2019-05-26T04:16:49.330Z,12.30
2019-05-26T04:19:18.827Z,12.30
2019-05-26T04:21:48.016Z,12.30
2019-05-26T04:24:17.111Z,12.30
2019-05-26T04:26:46.228Z,12.30
2019-05-26T04:29:15.390Z,12.40
2019-05-26T04:31:44.531Z,12.40
2019-05-26T04:34:13.740Z,12.30
2019-05-26T04:36:42.899Z,12.40
2019-05-26T04:39:12.028Z,12.40
2019-05-26T04:41:41.127Z,12.40
2019-05-26T04:44:10.242Z,12.50
2019-05-26T04:46:39.362Z,12.50
2019-05-26T04:49:08.525Z,12.50
2019-05-26T04:51:37.653Z,12.60
2019-05-26T04:54:06.815Z,12.60
2019-05-26T04:56:35.928Z,12.60
2019-05-26T04:59:05.118Z,12.60
2019-05-26T05:01:34.295Z,12.70
2019-05-26T05:04:03.431Z,12.70
2019-05-26T05:06:32.534Z,12.80
2019-05-26T05:09:01.707Z,12.90
2019-05-26T05:11:30.794Z,12.90
2019-05-26T05:13:59.950Z,12.90
2019-05-26T05:16:29.055Z,12.90
2019-05-26T05:18:58.158Z,13.00
2019-05-26T05:21:27.255Z,13.00
2019-05-26T05:23:56.437Z,13.10
2019-05-26T05:26:25.533Z,13.20
2019-05-26T05:28:54.647Z,13.30
2019-05-26T05:31:23.747Z,13.30
2019-05-26T05:33:52.833Z,13.40
2019-05-26T05:36:21.946Z,13.50
2019-05-26T05:38:51.034Z,13.50
2019-05-26T05:41:20.155Z,13.60
2019-05-26T05:43:49.186Z,13.60
2019-05-26T05:46:19.039Z,13.70
2019-05-26T05:48:48.259Z,13.80
2019-05-26T05:51:17.363Z,13.80
2019-05-26T05:53:46.866Z,14.00
2019-05-26T05:56:15.970Z,14.10
2019-05-26T05:58:45.148Z,14.20
2019-05-26T06:01:14.333Z,14.30
2019-05-26T06:03:43.414Z,14.40
2019-05-26T06:06:12.554Z,14.60
2019-05-26T06:08:41.667Z,14.70
2019-05-26T06:11:16.617Z,14.90
2019-05-26T06:13:41.614Z,14.90
2019-05-26T06:16:10.744Z,15.10
2019-05-26T06:18:39.853Z,15.20
2019-05-26T06:21:09.523Z,15.20
2019-05-26T06:23:38.695Z,15.30
2019-05-26T06:26:07.806Z,15.40
2019-05-26T06:28:36.958Z,15.50
2019-05-26T06:31:06.345Z,15.60
2019-05-26T06:33:35.459Z,15.80
2019-05-26T06:36:04.677Z,15.90
2019-05-26T06:38:33.816Z,16.10
2019-05-26T06:41:02.923Z,16.10
2019-05-26T06:43:32.062Z,16.20
2019-05-26T06:46:01.167Z,16.40
2019-05-26T06:48:30.275Z,16.40
2019-05-26T06:50:59.380Z,16.50
2019-05-26T06:53:28.634Z,16.60
2019-05-26T06:55:57.965Z,16.70
2019-05-26T06:58:27.080Z,16.70
2019-05-26T07:00:56.269Z,16.80
2019-05-26T07:03:25.447Z,16.90
2019-05-26T07:05:54.539Z,16.80
2019-05-26T07:08:23.715Z,17.00
2019-05-26T07:10:52.821Z,17.00
2019-05-26T07:13:21.914Z,17.20
2019-05-26T07:15:51.091Z,17.30
2019-05-26T07:18:20.174Z,17.40
2019-05-26T07:20:49.292Z,17.60
2019-05-26T07:23:18.399Z,17.90
2019-05-26T07:25:47.528Z,18.10
2019-05-26T07:28:16.716Z,18.30
2019-05-26T07:30:45.838Z,18.20
2019-05-26T07:33:14.949Z,18.30
2019-05-26T07:35:44.583Z,18.40
2019-05-26T07:38:13.706Z,18.50
2019-05-26T07:40:42.814Z,18.60
2019-05-26T07:43:11.928Z,18.70
2019-05-26T07:45:41.023Z,18.70
2019-05-26T07:48:10.110Z,18.70
2019-05-26T07:50:39.220Z,19.00
2019-05-26T07:53:08.407Z,19.30
2019-05-26T07:55:37.627Z,19.50
2019-05-26T07:58:06.791Z,19.60
2019-05-26T08:00:35.993Z,19.80
2019-05-26T08:03:05.131Z,20.00
2019-05-26T08:05:34.224Z,19.90
2019-05-26T08:08:12.776Z,19.70
2019-05-26T08:10:34.267Z,19.70
2019-05-26T08:13:03.406Z,19.60
2019-05-26T08:15:32.494Z,19.70
2019-05-26T08:18:01.587Z,19.80
2019-05-26T08:20:30.714Z,19.80
2019-05-26T08:22:59.898Z,20.00
2019-05-26T08:25:29.090Z,20.30
2019-05-26T08:27:58.186Z,20.20
2019-05-26T08:30:27.577Z,20.20
2019-05-26T08:32:56.703Z,20.30
2019-05-26T08:35:25.878Z,20.50
2019-05-26T08:37:55.124Z,20.70
2019-05-26T08:40:24.226Z,20.80
2019-05-26T08:42:53.436Z,20.80
2019-05-26T08:45:23.161Z,20.90
2019-05-26T08:47:52.604Z,21.10
2019-05-26T08:50:22.107Z,21.30
2019-05-26T08:52:51.294Z,21.40
2019-05-26T08:55:21.219Z,21.60
2019-05-26T08:57:50.362Z,21.80
2019-05-26T09:00:19.894Z,21.90
2019-05-26T09:02:49.018Z,21.70
2019-05-26T09:05:18.320Z,21.30
2019-05-26T09:07:47.423Z,21.30
2019-05-26T09:10:17.052Z,21.40
2019-05-26T09:12:59.731Z,21.60
2019-05-26T09:15:17.166Z,21.60
2019-05-26T09:17:46.330Z,21.70
2019-05-26T09:20:15.958Z,21.90
2019-05-26T09:22:45.226Z,22.10
2019-05-26T09:25:14.683Z,22.20
2019-05-26T09:27:43.815Z,22.20
2019-05-26T09:30:13.818Z,22.10
2019-05-26T09:32:42.913Z,22.30
2019-05-26T09:35:13.640Z,22.50
2019-05-26T09:37:42.782Z,22.50
2019-05-26T09:40:12.005Z,22.60
2019-05-26T09:42:41.022Z,22.40
2019-05-26T09:45:10.537Z,22.20
2019-05-26T09:47:39.641Z,22.20
2019-05-26T09:50:10.424Z,22.10
2019-05-26T09:52:39.503Z,22.00
2019-05-26T09:55:09.339Z,21.60
2019-05-26T09:57:38.437Z,21.60
2019-05-26T10:00:08.278Z,21.50
2019-05-26T10:02:37.486Z,21.20
2019-05-26T10:05:07.251Z,21.20
2019-05-26T10:07:36.374Z,21.20
2019-05-26T10:10:06.702Z,21.20
2019-05-26T10:12:35.894Z,21.30
2019-05-26T10:15:05.491Z,21.50
2019-05-26T10:17:34.616Z,21.60
2019-05-26T10:20:04.291Z,21.80
2019-05-26T10:22:33.506Z,21.90
2019-05-26T10:25:02.603Z,22.10
2019-05-26T10:27:31.715Z,22.50
2019-05-26T10:30:00.839Z,22.60
2019-05-26T10:32:30.038Z,22.80
2019-05-26T10:34:59.162Z,23.00
2019-05-26T10:37:28.265Z,23.20
2019-05-26T10:39:57.399Z,23.30
2019-05-26T10:42:26.500Z,23.60
2019-05-26T10:44:55.616Z,23.90
2019-05-26T10:47:24.739Z,24.10
2019-05-26T10:49:53.902Z,24.30
2019-05-26T10:52:23.024Z,24.30
2019-05-26T10:54:52.123Z,24.00
2019-05-26T10:57:21.299Z,23.90
2019-05-26T10:59:50.438Z,24.00
2019-05-26T11:02:19.579Z,24.10
2019-05-26T11:04:48.753Z,24.20
2019-05-26T11:07:17.957Z,24.30
2019-05-26T11:09:47.108Z,23.60
2019-05-26T11:12:16.274Z,22.70
2019-05-26T11:14:45.381Z,22.30
2019-05-26T11:17:14.586Z,21.80
2019-05-26T11:19:43.786Z,21.70
2019-05-26T11:22:12.936Z,21.50
2019-05-26T11:24:42.090Z,21.50
2019-05-26T11:27:12.991Z,22.00
2019-05-26T11:29:42.083Z,22.40
2019-05-26T11:32:11.282Z,22.70
2019-05-26T11:34:40.449Z,22.80
2019-05-26T11:37:09.491Z,22.40
2019-05-26T11:39:38.655Z,22.20
2019-05-26T11:42:13.171Z,22.00
2019-05-26T11:44:39.211Z,21.90
2019-05-26T11:47:08.326Z,21.90
2019-05-26T11:49:37.519Z,21.90
2019-05-26T11:52:06.776Z,22.40
2019-05-26T11:54:36.918Z,22.20
2019-05-26T11:57:06.198Z,22.20
2019-05-26T11:59:35.371Z,22.30
2019-05-26T12:02:04.623Z,22.60
2019-05-26T12:04:33.753Z,22.80
2019-05-26T12:07:04.433Z,23.10
2019-05-26T12:09:33.718Z,23.10
2019-05-26T12:12:02.906Z,23.00
2019-05-26T12:14:35.241Z,23.00
2019-05-26T12:17:02.826Z,23.10
2019-05-26T12:19:31.926Z,23.40
2019-05-26T12:22:01.046Z,23.40
2019-05-26T12:24:30.239Z,23.30
2019-05-26T12:26:59.368Z,22.70
2019-05-26T12:29:28.475Z,22.40
2019-05-26T12:31:57.586Z,22.70
2019-05-26T12:34:26.697Z,23.10
2019-05-26T12:36:55.791Z,23.70
2019-05-26T12:39:24.907Z,23.70
2019-05-26T12:41:54.016Z,23.40
2019-05-26T12:44:23.239Z,23.30
2019-05-26T12:46:52.342Z,23.00
2019-05-26T12:49:21.455Z,22.60
2019-05-26T12:51:50.623Z,22.40
2019-05-26T12:54:20.098Z,22.10
2019-05-26T12:56:49.249Z,22.00
2019-05-26T12:59:18.352Z,22.00
2019-05-26T13:01:47.605Z,22.10
2019-05-26T13:04:16.799Z,22.10
2019-05-26T13:06:46.749Z,22.20
2019-05-26T13:09:16.015Z,22.50
2019-05-26T13:11:45.145Z,22.80
2019-05-26T13:14:14.275Z,23.10
2019-05-26T13:16:43.694Z,23.40
2019-05-26T13:19:13.226Z,23.90
2019-05-26T13:21:43.787Z,24.20
2019-05-26T13:24:18.852Z,24.50
2019-05-26T13:26:53.355Z,24.60
2019-05-26T13:29:27.443Z,24.60
2019-05-26T13:31:56.695Z,24.60
2019-05-26T13:34:26.122Z,24.50
2019-05-26T13:36:56.637Z,24.60
2019-05-26T13:39:27.929Z,24.70
2019-05-26T13:41:57.142Z,24.80
2019-05-26T13:44:29.722Z,24.80
2019-05-26T13:47:01.667Z,24.50
2019-05-26T13:49:37.800Z,24.30
2019-05-26T13:52:11.001Z,24.00
2019-05-26T13:55:03.599Z,23.80
2019-05-26T13:57:32.773Z,23.20
2019-05-26T14:00:07.029Z,23.00
2019-05-26T14:02:37.365Z,23.00
2019-05-26T14:05:06.770Z,23.10
2019-05-26T14:07:35.908Z,23.20
2019-05-26T14:10:06.174Z,23.30
2019-05-26T14:12:35.311Z,23.40
2019-05-26T14:15:04.648Z,23.60
2019-05-26T14:17:34.822Z,23.40
2019-05-26T14:20:06.146Z,23.30
2019-05-26T14:22:35.292Z,23.20
2019-05-26T14:25:05.012Z,23.00
2019-05-26T14:27:34.251Z,22.90
2019-05-26T14:30:03.551Z,22.80
2019-05-26T14:32:32.670Z,23.00
2019-05-26T14:35:01.804Z,23.20
2019-05-26T14:37:31.007Z,23.30
2019-05-26T14:40:00.232Z,23.20
2019-05-26T14:42:29.373Z,23.00
2019-05-26T14:44:58.580Z,22.90
2019-05-26T14:47:27.768Z,22.80
2019-05-26T14:50:20.420Z,22.80
2019-05-26T14:52:49.436Z,22.80
2019-05-26T14:55:18.629Z,22.70
2019-05-26T14:57:47.791Z,22.60
2019-05-26T15:00:18.842Z,22.40
2019-05-26T15:02:48.032Z,22.30
2019-05-26T15:05:18.724Z,22.30
2019-05-26T15:07:47.849Z,22.10
2019-05-26T15:10:16.959Z,22.00
2019-05-26T15:12:46.053Z,21.90
2019-05-26T15:15:16.267Z,21.80
2019-05-26T15:17:45.374Z,21.70
2019-05-26T15:20:15.098Z,21.70
2019-05-26T15:22:44.202Z,21.70
2019-05-26T15:25:13.411Z,21.80
2019-05-26T15:27:45.913Z,21.80
2019-05-26T15:30:15.724Z,21.70
2019-05-26T15:32:45.006Z,21.80
2019-05-26T15:35:14.162Z,21.70
2019-05-26T15:37:43.283Z,21.70
2019-05-26T15:40:13.256Z,21.60
2019-05-26T15:42:42.498Z,21.50
2019-05-26T15:45:12.562Z,21.30
2019-05-26T15:47:41.800Z,21.20
2019-05-26T15:50:16.785Z,21.10
2019-05-26T15:52:47.806Z,21.10
2019-05-26T15:55:17.334Z,21.10
2019-05-26T15:57:46.478Z,21.10
2019-05-26T16:00:19.313Z,21.10
2019-05-26T16:02:48.506Z,21.00
2019-05-26T16:05:17.777Z,21.10
2019-05-26T16:07:46.887Z,21.10
2019-05-26T16:10:16.283Z,21.30
2019-05-26T16:12:45.418Z,21.40
2019-05-26T16:15:14.917Z,21.50
2019-05-26T16:17:44.127Z,21.70
2019-05-26T16:20:13.563Z,21.90
2019-05-26T16:22:42.815Z,22.00
2019-05-26T16:25:11.989Z,22.20
2019-05-26T16:27:41.097Z,22.10
2019-05-26T16:30:10.985Z,22.00
2019-05-26T16:32:40.204Z,21.90
2019-05-26T16:35:10.053Z,21.70
2019-05-26T16:37:41.367Z,21.60
2019-05-26T16:40:10.717Z,21.50
2019-05-26T16:42:39.898Z,21.20
2019-05-26T16:45:09.471Z,21.00
2019-05-26T16:47:38.600Z,20.80
2019-05-26T16:50:09.199Z,20.70
2019-05-26T16:52:38.428Z,20.60
2019-05-26T16:55:08.045Z,20.40
2019-05-26T16:57:41.051Z,20.30
2019-05-26T17:00:13.066Z,20.10
2019-05-26T17:02:42.306Z,20.00
2019-05-26T17:05:11.438Z,19.90
2019-05-26T17:07:40.878Z,19.80
2019-05-26T17:10:13.092Z,19.80
2019-05-26T17:12:42.250Z,19.80
2019-05-26T17:15:12.883Z,19.70
2019-05-26T17:17:42.002Z,19.60
2019-05-26T17:20:11.830Z,19.50
2019-05-26T17:22:40.966Z,19.50
2019-05-26T17:25:11.393Z,19.40
2019-05-26T17:27:41.804Z,19.40
2019-05-26T17:30:11.371Z,19.30
2019-05-26T17:32:40.574Z,19.20
2019-05-26T17:35:09.914Z,19.20
2019-05-26T17:37:39.123Z,19.10
2019-05-26T17:40:08.925Z,19.00
2019-05-26T17:42:38.109Z,19.00
2019-05-26T17:45:07.832Z,18.90
2019-05-26T17:47:37.012Z,18.80
2019-05-26T17:50:06.956Z,18.80
2019-05-26T17:52:36.089Z,18.70
2019-05-26T17:55:05.927Z,18.70
2019-05-26T17:58:11.685Z,18.60
2019-05-26T18:00:41.412Z,18.50
2019-05-26T18:03:10.648Z,18.50
2019-05-26T18:05:39.842Z,18.40
2019-05-26T18:08:09.046Z,18.30
2019-05-26T18:10:38.242Z,18.30
2019-05-26T18:13:07.389Z,18.20
2019-05-26T18:15:36.538Z,18.20
2019-05-26T18:18:05.733Z,18.10
2019-05-26T18:20:34.930Z,18.00
2019-05-26T18:23:04.102Z,17.90
2019-05-26T18:25:33.190Z,17.90
2019-05-26T18:28:02.381Z,17.80
2019-05-26T18:30:31.478Z,17.70
2019-05-26T18:33:00.785Z,17.60
2019-05-26T18:35:30.286Z,17.60
2019-05-26T18:38:09.099Z,17.50
2019-05-26T18:40:38.207Z,17.40
2019-05-26T18:43:07.380Z,17.20
2019-05-26T18:45:37.838Z,17.10
2019-05-26T18:48:06.943Z,17.00
2019-05-26T18:50:36.076Z,16.90
2019-05-26T18:53:05.291Z,16.80
2019-05-26T18:55:34.395Z,16.70
2019-05-26T18:58:03.579Z,16.60
2019-05-26T19:00:32.884Z,16.50
2019-05-26T19:03:02.043Z,16.40
2019-05-26T19:05:34.694Z,16.30
2019-05-26T19:08:02.086Z,16.20
2019-05-26T19:10:31.276Z,16.20
2019-05-26T19:13:00.473Z,16.00
2019-05-26T19:15:29.598Z,15.90
2019-05-26T19:17:58.695Z,15.80
2019-05-26T19:20:27.787Z,15.70
2019-05-26T19:22:56.910Z,15.60
2019-05-26T19:25:26.218Z,15.60
2019-05-26T19:27:55.391Z,15.50
2019-05-26T19:30:24.578Z,15.40
2019-05-26T19:32:53.711Z,15.20
2019-05-26T19:35:22.919Z,15.10
2019-05-26T19:38:28.470Z,15.00
2019-05-26T19:40:57.670Z,14.90
2019-05-26T19:43:27.034Z,14.70
2019-05-26T19:45:56.224Z,14.70
2019-05-26T19:48:35.658Z,14.50
2019-05-26T19:50:56.157Z,14.50
2019-05-26T19:53:25.365Z,14.40
2019-05-26T19:55:54.644Z,14.40
2019-05-26T19:58:23.773Z,14.40
2019-05-26T20:00:52.922Z,14.30
2019-05-26T20:03:22.051Z,14.20
2019-05-26T20:05:51.241Z,14.10
2019-05-26T20:08:20.467Z,14.10
2019-05-26T20:10:49.571Z,14.00
2019-05-26T21:21:22.495Z,12.10
2019-05-26T21:23:51.594Z,12.10
2019-05-26T21:26:20.673Z,12.00
2019-05-26T21:28:49.716Z,12.00
2019-05-26T21:31:18.803Z,12.00
2019-05-26T21:33:47.905Z,11.90
2019-05-26T21:36:17.008Z,11.90
2019-05-26T21:38:46.125Z,11.80
2019-05-26T21:41:15.253Z,11.80
2019-05-26T21:43:44.648Z,11.80
2019-05-26T21:46:13.753Z,11.70
2019-05-26T21:48:42.757Z,11.70
2019-05-26T21:51:11.842Z,11.70
2019-05-26T21:53:40.922Z,11.60
2019-05-26T21:56:10.025Z,11.60
2019-05-26T21:58:39.021Z,11.60
2019-05-26T22:01:08.509Z,11.60
2019-05-26T22:03:37.710Z,11.50
2019-05-26T22:06:06.790Z,11.50
2019-05-26T22:08:35.961Z,11.50
2019-05-26T22:11:05.154Z,11.50
2019-05-26T22:13:34.262Z,11.50
2019-05-26T22:16:03.349Z,11.50
2019-05-26T22:18:32.434Z,11.50
2019-05-26T22:21:01.521Z,11.40
2019-05-26T22:23:30.606Z,11.40
2019-05-26T22:25:59.774Z,11.40
2019-05-26T22:28:28.886Z,11.40
2019-05-26T22:30:57.918Z,11.40
2019-05-26T22:33:27.006Z,11.30
2019-05-26T22:35:56.077Z,11.30
2019-05-26T22:38:25.111Z,11.30
2019-05-26T22:40:54.275Z,11.20
2019-05-26T22:43:23.357Z,11.20
2019-05-26T22:45:52.467Z,11.20
2019-05-26T22:48:21.618Z,11.20
2019-05-26T22:50:50.619Z,11.20
2019-05-26T22:53:19.726Z,11.20
2019-05-26T22:55:48.823Z,11.20
2019-05-26T22:58:17.989Z,11.10
2019-05-26T23:00:47.086Z,11.10
2019-05-26T23:03:16.183Z,11.10
2019-05-26T23:05:45.258Z,11.10
2019-05-26T23:08:14.338Z,11.10
2019-05-26T23:10:43.413Z,11.00
2019-05-26T23:13:12.502Z,11.10
2019-05-26T23:15:41.579Z,11.00
2019-05-26T23:18:10.750Z,11.00
2019-05-26T23:20:39.845Z,11.00
2019-05-26T23:23:08.878Z,11.00
2019-05-26T23:25:37.976Z,10.90
2019-05-26T23:28:07.094Z,10.90
2019-05-26T23:30:36.187Z,10.90
2019-05-26T23:33:05.305Z,10.90
2019-05-26T23:35:34.384Z,10.90
2019-05-26T23:38:03.478Z,10.90
2019-05-26T23:40:32.533Z,10.80
2019-05-26T23:43:01.966Z,10.80
2019-05-26T23:45:31.188Z,10.80
2019-05-26T23:48:00.286Z,10.80
2019-05-26T23:50:29.406Z,10.80
2019-05-26T23:52:58.359Z,10.80
2019-05-26T23:55:27.495Z,10.80
2019-05-26T23:57:56.590Z,10.80
